首页
METAR-TAF:

METAR-TAF

机场 :

Crestview, 佛罗里达州, 美国

纬度: 30-46-20N, 经度: 086-31-12W, 海拔: 65米

当前天气观测

该预报发布于1小时和2分钟前的04:53 UTC
静风
温度 25°C
湿度 89%
气压 1020 hPa
能見度: 16.1公里
天空无云

METAR: KCEW 270453Z AUTO 00000KT 10SM CLR 25/23 A3011 RMK AO2 SLP194 T02500228

时间: 00:55 (05:55 UTC)


TAF: 丢失

超过4000个机场的气象观测和天气预报(METAR&TAF报告)。

可查询的气象台以黄色和红色小点在地图上表示。

将鼠标移到小点上方,可查看气象台名称。

然后点击查看天气观测和预报。

如需切换地图:点击带黑十字的绿色按钮放大地图;点击带横线的绿色按钮缩小地图;或者点击绿色箭头查看邻近地区的地图。


METAR-TAF: